createdAt,value
2022-08-07T00:00:40.054Z,102939.16
2022-08-07T00:03:08.756Z,102936.63
2022-08-07T00:05:36.268Z,102942.63
2022-08-07T00:08:04.685Z,102935.81
2022-08-07T00:10:31.727Z,102934.16
2022-08-07T00:13:09.653Z,102932.47
2022-08-07T00:15:46.753Z,102930.72
2022-08-07T00:18:24.033Z,102927.31
2022-08-07T00:20:53.263Z,102929.91
2022-08-07T00:23:21.363Z,102922.25
2022-08-07T00:25:58.149Z,102922.25
2022-08-07T00:28:34.157Z,102917.16
2022-08-07T00:31:12.323Z,102913.72
2022-08-07T00:33:40.678Z,102915.41
2022-08-07T00:36:08.342Z,102921.44
2022-08-07T00:38:36.790Z,102912.91
2022-08-07T00:41:09.835Z,102913.78
2022-08-07T00:43:59.450Z,102902.66
2022-08-07T00:46:27.435Z,102910.38
2022-08-07T00:48:53.889Z,102901.84
2022-08-07T00:51:20.469Z,102894.16
2022-08-07T00:53:50.200Z,102899.28
2022-08-07T00:56:22.612Z,102902.72
2022-08-07T00:58:49.566Z,102901.03
2022-08-07T01:01:17.862Z,102895.06
2022-08-07T01:03:55.611Z,102893.34
2022-08-07T01:06:29.242Z,102893.34
2022-08-07T01:08:58.710Z,102895.97
2022-08-07T01:12:23.499Z,102895.97
2022-08-07T01:14:16.765Z,102895.06
2022-08-07T01:16:46.857Z,102893.38
2022-08-07T01:19:19.026Z,102888.25
2022-08-07T01:21:48.199Z,102888.28
2022-08-07T01:24:21.197Z,102889.13
2022-08-07T01:26:51.778Z,102893.38
2022-08-07T01:29:22.078Z,102888.25
2022-08-07T01:31:49.443Z,102886.56
2022-08-07T01:34:18.660Z,102890.00
2022-08-07T01:36:52.785Z,102890.00
2022-08-07T01:39:26.963Z,102884.06
2022-08-07T01:42:37.550Z,102889.22
2022-08-07T01:44:54.859Z,102878.13
2022-08-07T01:48:20.529Z,102879.81
2022-08-07T01:50:09.098Z,102879.81
2022-08-07T01:52:40.854Z,102874.69
2022-08-07T01:55:22.491Z,102879.84
2022-08-07T01:58:06.895Z,102873.00
2022-08-07T02:00:45.449Z,102873.00
2022-08-07T02:03:25.014Z,102879.84
2022-08-07T02:06:31.590Z,102877.28
2022-08-07T02:09:00.506Z,102875.56
2022-08-07T02:12:04.032Z,102873.00
2022-08-07T02:14:36.277Z,102869.56
2022-08-07T02:17:10.003Z,102871.31
2022-08-07T02:20:04.349Z,102874.72
2022-08-07T02:22:26.970Z,102877.28
2022-08-07T02:24:56.286Z,102874.69
2022-08-07T02:27:25.110Z,102868.75
2022-08-07T02:29:54.806Z,102863.63
2022-08-07T02:32:23.499Z,102872.19
2022-08-07T02:34:56.209Z,102870.47
2022-08-07T02:37:26.651Z,102861.91
2022-08-07T02:40:02.331Z,102860.22
2022-08-07T02:42:43.565Z,102855.94
2022-08-07T02:45:58.144Z,102862.78
2022-08-07T02:48:01.635Z,102864.50
2022-08-07T02:50:30.744Z,102863.63
2022-08-07T02:53:06.154Z,102860.22
2022-08-07T02:56:03.115Z,102867.06
2022-08-07T02:58:27.255Z,102863.66
2022-08-07T03:00:57.350Z,102861.94
2022-08-07T03:03:26.720Z,102850.81
2022-08-07T03:06:16.377Z,102867.94
2022-08-07T03:08:43.714Z,102853.41
2022-08-07T03:11:11.015Z,102860.22
2022-08-07T03:13:38.663Z,102861.94
2022-08-07T03:16:06.144Z,102859.38
2022-08-07T03:18:34.935Z,102855.13
2022-08-07T03:21:05.042Z,102859.38
2022-08-07T03:24:20.524Z,102857.66
2022-08-07T03:26:27.920Z,102853.41
2022-08-07T03:28:55.917Z,102855.97
2022-08-07T03:31:42.769Z,102856.81
2022-08-07T03:34:18.753Z,102855.13
2022-08-07T03:36:52.860Z,102856.81
2022-08-07T03:39:42.042Z,102854.25
2022-08-07T03:42:07.472Z,102859.41
2022-08-07T03:44:36.603Z,102850.84
2022-08-07T03:47:13.064Z,102852.56
2022-08-07T03:49:42.516Z,102854.25
2022-08-07T03:52:27.021Z,102849.97
2022-08-07T03:54:59.047Z,102850.84
2022-08-07T03:58:32.542Z,102855.97
2022-08-07T04:00:21.247Z,102857.66
2022-08-07T04:02:58.901Z,102851.69
2022-08-07T04:05:39.572Z,102853.41
2022-08-07T04:08:11.064Z,102856.81
2022-08-07T04:10:38.833Z,102856.81
2022-08-07T04:13:07.660Z,102847.44
2022-08-07T04:15:43.306Z,102854.25
2022-08-07T04:18:59.067Z,102861.94
2022-08-07T04:21:00.631Z,102857.69
2022-08-07T04:23:43.628Z,102857.66
2022-08-07T04:26:16.944Z,102867.09
2022-08-07T04:28:48.423Z,102864.50
2022-08-07T04:31:19.994Z,102861.94
2022-08-07T04:33:47.484Z,102861.91
2022-08-07T04:36:22.790Z,102874.78
2022-08-07T04:38:52.945Z,102876.50
2022-08-07T04:41:19.449Z,102875.63
2022-08-07T04:44:10.063Z,102865.38
2022-08-07T04:47:04.936Z,102873.91
2022-08-07T04:49:37.810Z,102867.94
2022-08-07T04:52:37.551Z,102870.50
2022-08-07T04:58:07.749Z,102877.34
2022-08-07T04:59:07.738Z,102876.50
2022-08-07T05:01:40.782Z,102882.47
2022-08-07T05:04:18.016Z,102880.75
2022-08-07T05:06:56.784Z,102879.91
2022-08-07T05:09:45.780Z,102873.91
2022-08-07T05:12:26.963Z,102871.31
2022-08-07T05:15:16.011Z,102875.59
2022-08-07T05:17:55.595Z,102879.00
2022-08-07T05:20:31.053Z,102877.28
2022-08-07T05:23:02.086Z,102878.97
2022-08-07T05:25:54.533Z,102877.25
2022-08-07T05:28:22.648Z,102876.34
2022-08-07T05:30:52.482Z,102876.28
2022-08-07T05:33:21.536Z,102883.94
2022-08-07T05:35:52.885Z,102890.72
2022-08-07T05:38:59.995Z,102886.38
2022-08-07T05:41:12.366Z,102888.03
2022-08-07T05:44:01.324Z,102883.59
2022-08-07T05:46:30.953Z,102880.06
2022-08-07T05:48:59.743Z,102871.41
2022-08-07T05:51:31.641Z,102873.00
2022-08-07T05:54:13.063Z,102875.47
2022-08-07T05:56:51.340Z,102883.91
2022-08-07T05:59:21.019Z,102887.19
2022-08-07T06:01:49.402Z,102888.75
2022-08-07T06:04:18.044Z,102888.63
2022-08-07T06:06:47.761Z,102893.59
2022-08-07T06:10:04.649Z,102895.97
2022-08-07T06:12:15.404Z,102890.59
2022-08-07T06:14:43.082Z,102886.13
2022-08-07T06:17:19.236Z,102873.00
2022-08-07T06:20:03.647Z,102874.53
2022-08-07T06:22:38.896Z,102876.91
2022-08-07T06:25:10.152Z,102874.97
2022-08-07T06:27:59.674Z,102879.00
2022-08-07T06:30:32.248Z,102881.38
2022-08-07T06:33:10.061Z,102882.00
2022-08-07T06:35:47.565Z,102886.16
2022-08-07T06:38:30.492Z,102885.06
2022-08-07T06:41:01.121Z,102885.72
2022-08-07T06:43:39.894Z,102888.13
2022-08-07T06:46:13.254Z,102874.97
2022-08-07T06:48:42.040Z,102871.31
2022-08-07T06:51:15.722Z,102878.06
2022-08-07T06:55:28.486Z,102877.91
2022-08-07T06:56:51.432Z,102875.88
2022-08-07T07:00:14.423Z,102874.00
2022-08-07T07:02:53.495Z,102869.41
2022-08-07T07:05:03.186Z,102874.53
2022-08-07T07:07:59.646Z,102865.66
2022-08-07T07:10:26.916Z,102870.63
2022-08-07T07:12:55.802Z,102878.94
2022-08-07T07:15:32.542Z,102873.50
2022-08-07T07:18:47.186Z,102882.72
2022-08-07T07:21:19.647Z,102889.47
2022-08-07T07:24:09.879Z,102890.13
2022-08-07T07:26:37.919Z,102891.53
2022-08-07T07:29:38.446Z,102898.19
2022-08-07T07:32:07.922Z,102888.50
2022-08-07T07:34:39.653Z,102889.09
2022-08-07T07:37:22.054Z,102892.38
2022-08-07T07:39:58.006Z,102893.03
2022-08-07T07:42:32.905Z,102885.81
2022-08-07T07:45:05.642Z,102881.31
2022-08-07T07:47:51.945Z,102880.16
2022-08-07T07:50:33.519Z,102879.88
2022-08-07T07:53:20.499Z,102872.81
2022-08-07T07:55:57.995Z,102871.75
2022-08-07T07:58:40.464Z,102876.59
2022-08-07T08:02:03.603Z,102859.97
2022-08-07T08:04:10.909Z,102861.44
2022-08-07T08:06:50.889Z,102862.19
2022-08-07T08:09:23.313Z,102862.81
2022-08-07T08:12:02.865Z,102856.31
2022-08-07T08:14:36.369Z,102859.44
2022-08-07T08:17:55.842Z,102861.84
2022-08-07T08:20:17.030Z,102857.28
2022-08-07T08:23:08.165Z,102849.19
2022-08-07T08:25:56.694Z,102846.25
2022-08-07T08:28:38.667Z,102841.50
2022-08-07T08:31:10.800Z,102840.25
2022-08-07T08:33:49.295Z,102839.19
2022-08-07T08:36:25.710Z,102845.94
2022-08-07T08:39:00.081Z,102835.31
2022-08-07T08:41:56.647Z,102842.03
2022-08-07T08:44:46.696Z,102840.16
2022-08-07T08:47:26.247Z,102847.44
2022-08-07T08:50:08.316Z,102835.78
2022-08-07T08:52:54.331Z,102835.19
2022-08-07T08:55:55.535Z,102840.31
2022-08-07T08:58:28.629Z,102840.50
2022-08-07T09:00:59.206Z,102832.09
2022-08-07T09:03:49.907Z,102835.84
2022-08-07T09:06:42.807Z,102831.75
2022-08-07T09:09:36.936Z,102829.28
2022-08-07T09:12:20.098Z,102817.63
2022-08-07T09:16:23.409Z,102824.81
2022-08-07T09:18:27.885Z,102831.66
2022-08-07T09:21:33.954Z,102817.16
2022-08-07T09:24:54.980Z,102821.31
2022-08-07T09:27:59.462Z,102821.03
2022-08-07T09:30:41.745Z,102820.31
2022-08-07T09:33:41.190Z,102816.38
2022-08-07T09:36:18.660Z,102817.78
2022-08-07T09:38:54.238Z,102806.97
2022-08-07T09:41:59.113Z,102814.28
2022-08-07T09:47:52.605Z,102810.47
2022-08-07T09:48:04.039Z,102804.69
2022-08-07T09:50:59.815Z,102807.06
2022-08-07T09:53:41.180Z,102803.94
2022-08-07T09:56:41.833Z,102791.34
2022-08-07T10:00:00.893Z,102789.47
2022-08-07T10:04:04.792Z,102791.09
2022-08-07T10:06:27.597Z,102788.91
2022-08-07T10:09:10.154Z,102793.53
2022-08-07T10:12:01.167Z,102788.94
2022-08-07T10:14:55.190Z,102778.88
2022-08-07T10:18:01.758Z,102783.34
2022-08-07T10:20:45.402Z,102773.19
2022-08-07T10:24:06.018Z,102762.97
2022-08-07T10:26:53.864Z,102762.66
2022-08-07T10:29:45.651Z,102758.94
2022-08-07T10:32:52.313Z,102761.72
2022-08-07T10:35:56.328Z,102759.00
2022-08-07T10:38:36.102Z,102756.03
2022-08-07T10:41:53.053Z,102749.25
2022-08-07T10:45:01.866Z,102758.38
2022-08-07T10:48:05.755Z,102748.75
2022-08-07T10:51:07.841Z,102742.38
2022-08-07T10:53:49.582Z,102741.94
2022-08-07T10:56:37.141Z,102731.03
2022-08-07T10:59:31.882Z,102730.66
2022-08-07T11:02:32.843Z,102723.47
2022-08-07T11:05:24.911Z,102721.75
2022-08-07T11:08:39.174Z,102714.38
2022-08-07T11:11:14.095Z,102717.38
2022-08-07T11:14:43.608Z,102717.22
2022-08-07T11:16:55.775Z,102703.00
2022-08-07T11:19:47.004Z,102710.91
2022-08-07T11:22:45.575Z,102700.81
2022-08-07T11:25:49.730Z,102704.78
2022-08-07T11:28:53.455Z,102692.28
2022-08-07T11:31:35.363Z,102696.63
2022-08-07T11:34:12.491Z,102693.81
2022-08-07T11:37:01.240Z,102691.31
2022-08-07T11:40:00.262Z,102687.91
2022-08-07T11:43:01.739Z,102690.72
2022-08-07T11:45:58.437Z,102681.84
2022-08-07T11:49:27.847Z,102683.94
2022-08-07T11:54:01.413Z,102679.13
2022-08-07T11:56:25.149Z,102677.16
2022-08-07T11:59:20.574Z,102666.41
2022-08-07T12:02:30.026Z,102669.25
2022-08-07T12:05:08.993Z,102658.84
2022-08-07T12:07:53.668Z,102659.78
2022-08-07T12:10:43.546Z,102666.25
2022-08-07T12:13:37.892Z,102661.84
2022-08-07T12:16:57.158Z,102662.47
2022-08-07T12:27:15.862Z,102670.13
2022-08-07T12:30:10.099Z,102664.38
2022-08-07T12:34:01.329Z,102665.56
2022-08-07T12:40:47.962Z,102649.47
2022-08-07T12:44:01.850Z,102652.59
2022-08-07T12:46:32.794Z,102657.25
2022-08-07T12:49:39.852Z,102655.41
2022-08-07T12:52:24.558Z,102636.63
2022-08-07T12:55:17.484Z,102644.63
2022-08-07T12:58:01.796Z,102647.34
2022-08-07T13:01:36.588Z,102649.78
2022-08-07T13:04:34.525Z,102644.56
2022-08-07T13:10:52.627Z,102648.56
2022-08-07T13:13:50.055Z,102644.47
2022-08-07T13:16:52.462Z,102634.16
2022-08-07T13:19:54.698Z,102638.31
2022-08-07T13:22:34.338Z,102640.69
2022-08-07T13:25:15.405Z,102638.44
2022-08-07T13:28:11.258Z,102637.94
2022-08-07T13:30:53.573Z,102634.97
2022-08-07T13:34:31.449Z,102631.38
2022-08-07T13:36:42.433Z,102625.38
2022-08-07T13:39:49.433Z,102622.63
2022-08-07T13:42:14.195Z,102618.31
2022-08-07T13:45:11.804Z,102610.09
2022-08-07T13:48:05.769Z,102617.31
2022-08-07T13:50:35.356Z,102615.66
2022-08-07T13:53:21.911Z,102607.53
2022-08-07T13:55:54.745Z,102620.44
2022-08-07T13:58:56.080Z,102616.50
2022-08-07T14:01:26.352Z,102618.19
2022-08-07T14:04:05.221Z,102617.84
2022-08-07T14:06:50.289Z,102613.16
2022-08-07T14:10:01.382Z,102609.66
2022-08-07T14:12:27.472Z,102611.41
2022-08-07T14:15:02.904Z,102612.91
2022-08-07T14:18:24.450Z,102606.59
2022-08-07T14:20:44.058Z,102613.00
2022-08-07T14:23:58.780Z,102606.47
2022-08-07T14:26:29.654Z,102615.69
2022-08-07T14:30:02.651Z,102611.41
2022-08-07T14:31:59.273Z,102607.59
2022-08-07T14:34:30.437Z,102605.91
2022-08-07T14:40:26.529Z,102613.63
2022-08-07T14:43:57.265Z,102614.94
2022-08-07T14:45:56.387Z,102615.38
2022-08-07T14:49:56.150Z,102610.25
2022-08-07T14:55:19.468Z,102609.81
2022-08-07T14:57:59.088Z,102605.78
2022-08-07T15:04:02.449Z,102598.97
2022-08-07T15:07:51.399Z,102599.78
2022-08-07T15:10:58.747Z,102600.47
2022-08-07T15:13:38.926Z,102596.91
2022-08-07T15:16:31.007Z,102590.88
2022-08-07T15:19:01.530Z,102586.31
2022-08-07T15:21:44.041Z,102582.59
2022-08-07T15:25:18.431Z,102584.56
2022-08-07T15:28:47.226Z,102578.50
2022-08-07T15:32:39.047Z,102585.50
2022-08-07T15:34:33.817Z,102576.75
2022-08-07T15:52:51.668Z,102577.03
2022-08-07T15:55:20.899Z,102572.47
2022-08-07T15:57:54.018Z,102568.50
2022-08-07T16:00:34.499Z,102559.19
2022-08-07T16:03:21.835Z,102561.56
2022-08-07T16:05:59.163Z,102560.84
2022-08-07T16:08:32.551Z,102557.78
2022-08-07T16:11:29.140Z,102561.00
2022-08-07T16:14:07.443Z,102556.53
2022-08-07T16:17:03.075Z,102553.22
2022-08-07T16:20:00.042Z,102557.41
2022-08-07T16:22:33.674Z,102553.03
2022-08-07T16:25:54.117Z,102560.47
2022-08-07T16:29:18.415Z,102556.84
2022-08-07T16:31:50.129Z,102554.50
2022-08-07T16:34:27.566Z,102558.63
2022-08-07T16:38:05.884Z,102565.03
2022-08-07T16:40:56.792Z,102558.38
2022-08-07T16:44:05.531Z,102558.56
2022-08-07T16:47:40.267Z,102560.50
2022-08-07T16:50:35.809Z,102556.47
2022-08-07T16:54:01.235Z,102562.72
2022-08-07T16:56:28.208Z,102557.97
2022-08-07T16:59:10.816Z,102554.63
2022-08-07T17:02:15.464Z,102551.25
2022-08-07T17:06:02.347Z,102550.78
2022-08-07T17:09:10.521Z,102553.81
2022-08-07T17:12:36.779Z,102566.06
2022-08-07T17:15:20.202Z,102560.09
2022-08-07T17:17:47.477Z,102553.09
2022-08-07T17:20:37.423Z,102548.28
2022-08-07T17:23:22.725Z,102551.19
2022-08-07T17:26:02.442Z,102543.69
2022-08-07T17:28:57.650Z,102552.25
2022-08-07T17:32:02.823Z,102557.38
2022-08-07T17:34:57.200Z,102556.50
2022-08-07T17:38:09.678Z,102547.16
2022-08-07T17:40:31.824Z,102552.78
2022-08-07T17:43:17.879Z,102540.91
2022-08-07T17:45:57.852Z,102546.56
2022-08-07T17:48:34.177Z,102551.94
2022-08-07T17:51:06.948Z,102553.47
2022-08-07T17:54:00.824Z,102561.63
2022-08-07T17:56:52.482Z,102561.09
2022-08-07T17:59:42.031Z,102563.72
2022-08-07T18:02:23.198Z,102562.25
2022-08-07T18:05:21.795Z,102567.97
2022-08-07T18:08:15.483Z,102563.44
2022-08-07T18:12:07.257Z,102564.13
2022-08-07T18:14:23.890Z,102571.09
2022-08-07T18:17:07.451Z,102577.44
2022-08-07T18:21:07.641Z,102576.72
2022-08-07T18:22:52.691Z,102568.75
2022-08-07T18:25:40.723Z,102578.28
2022-08-07T18:28:34.022Z,102586.50
2022-08-07T18:31:14.537Z,102580.13
2022-08-07T18:34:37.808Z,102585.66
2022-08-07T18:37:09.418Z,102588.06
2022-08-07T18:40:09.059Z,102592.84
2022-08-07T18:43:03.612Z,102596.72
2022-08-07T18:46:25.207Z,102595.84
2022-08-07T18:50:06.025Z,102601.97
2022-08-07T18:52:52.057Z,102598.50
2022-08-07T18:55:42.843Z,102599.31
2022-08-07T18:58:37.210Z,102600.09
2022-08-07T19:02:19.232Z,102604.75
2022-08-07T19:04:54.765Z,102609.88
2022-08-07T19:08:19.401Z,102611.91
2022-08-07T19:10:59.501Z,102616.03
2022-08-07T19:13:37.214Z,102611.88
2022-08-07T19:17:04.168Z,102608.72
2022-08-07T19:19:19.703Z,102613.63
2022-08-07T19:22:04.859Z,102616.63
2022-08-07T19:24:44.430Z,102609.28
2022-08-07T19:28:57.107Z,102615.53
2022-08-07T19:31:01.410Z,102622.03
2022-08-07T19:33:10.232Z,102623.28
2022-08-07T19:35:42.230Z,102627.13
2022-08-07T19:38:17.257Z,102629.16
2022-08-07T19:40:49.388Z,102635.44
2022-08-07T19:43:43.943Z,102642.72
2022-08-07T19:46:16.056Z,102645.88
2022-08-07T19:48:53.705Z,102652.41
2022-08-07T19:51:51.234Z,102644.13
2022-08-07T19:54:33.608Z,102657.31
2022-08-07T19:58:01.510Z,102660.38
2022-08-07T19:59:54.192Z,102661.44
2022-08-07T20:02:34.946Z,102658.31
2022-08-07T20:05:14.081Z,102657.59
2022-08-07T20:07:47.397Z,102661.31
2022-08-07T20:10:35.702Z,102668.44
2022-08-07T20:13:23.663Z,102667.06
2022-08-07T20:15:57.598Z,102664.84
2022-08-07T20:18:32.394Z,102671.06
2022-08-07T20:21:14.334Z,102671.44
2022-08-07T20:23:53.869Z,102674.41
2022-08-07T20:26:38.885Z,102667.84
2022-08-07T20:29:24.446Z,102675.81
2022-08-07T20:32:04.893Z,102676.25
2022-08-07T20:34:50.326Z,102673.06
2022-08-07T20:37:23.236Z,102674.69
2022-08-07T20:40:03.579Z,102688.22
2022-08-07T20:42:33.581Z,102680.19
2022-08-07T20:45:04.568Z,102680.59
2022-08-07T20:47:56.433Z,102681.53
2022-08-07T20:50:26.890Z,102677.41
2022-08-07T20:52:54.001Z,102678.50
2022-08-07T20:55:23.938Z,102668.25
2022-08-07T20:58:02.445Z,102676.19
2022-08-07T21:00:44.423Z,102676.72
2022-08-07T21:03:16.151Z,102686.56
2022-08-07T21:05:56.568Z,102681.69
2022-08-07T21:09:00.952Z,102684.69
2022-08-07T21:11:49.927Z,102693.03
2022-08-07T21:14:34.263Z,102690.47
2022-08-07T21:18:03.948Z,102694.00
2022-08-07T21:20:00.822Z,102689.81
2022-08-07T21:22:39.513Z,102689.06
2022-08-07T21:25:12.144Z,102688.50
2022-08-07T21:28:07.732Z,102689.50
2022-08-07T21:30:51.984Z,102692.31
2022-08-07T21:33:38.405Z,102695.22
2022-08-07T21:36:31.245Z,102685.22
2022-08-07T21:39:05.590Z,102687.81
2022-08-07T21:42:37.449Z,102687.25
2022-08-07T21:46:03.266Z,102671.94
2022-08-07T21:47:55.955Z,102689.31
2022-08-07T21:50:27.494Z,102685.22
2022-08-07T21:53:07.550Z,102681.91
2022-08-07T21:55:55.426Z,102690.81
2022-08-07T21:58:45.994Z,102676.16
2022-08-07T22:01:20.168Z,102687.44
2022-08-07T22:04:12.588Z,102697.16
2022-08-07T22:07:12.348Z,102693.19
2022-08-07T22:09:54.153Z,102697.63
2022-08-07T22:12:27.124Z,102691.47
2022-08-07T22:16:43.568Z,102702.72
2022-08-07T22:18:03.068Z,102699.38
2022-08-07T22:20:44.347Z,102700.44
2022-08-07T22:23:17.838Z,102705.09
2022-08-07T22:26:17.648Z,102707.06
2022-08-07T22:28:58.119Z,102709.88
2022-08-07T22:31:56.280Z,102712.66
2022-08-07T22:34:55.475Z,102706.63
2022-08-07T22:37:22.333Z,102710.00
2022-08-07T22:40:05.091Z,102711.94
2022-08-07T22:42:33.754Z,102709.44
2022-08-07T22:45:03.524Z,102715.69
2022-08-07T22:47:49.453Z,102715.81
2022-08-07T22:50:33.156Z,102719.31
2022-08-07T22:54:07.902Z,102724.34
2022-08-07T22:56:49.529Z,102723.69
2022-08-07T22:59:52.739Z,102726.31
2022-08-07T23:02:54.471Z,102729.03
2022-08-07T23:06:07.469Z,102726.34
2022-08-07T23:08:52.787Z,102737.50
2022-08-07T23:12:32.759Z,102730.94
2022-08-07T23:15:00.277Z,102732.03
2022-08-07T23:17:56.286Z,102730.50
2022-08-07T23:20:51.202Z,102738.25
2022-08-07T23:24:06.527Z,102728.09
2022-08-07T23:26:30.800Z,102734.19
2022-08-07T23:29:43.110Z,102734.22
2022-08-07T23:34:22.443Z,102735.94
2022-08-07T23:35:27.228Z,102733.53
2022-08-07T23:38:54.927Z,102729.19
2022-08-07T23:41:47.686Z,102726.53
2022-08-07T23:44:37.391Z,102731.84
2022-08-07T23:47:29.691Z,102734.41
2022-08-07T23:50:11.793Z,102735.31
2022-08-07T23:53:11.828Z,102734.44
2022-08-07T23:55:55.580Z,102737.19
2022-08-07T23:59:10.453Z,102734.72
